Time,TemperatureF,DewpointF,PressureIn,WindDirection,WindDirectionDegrees,WindSpeedMPH,WindSpeedGustMPH,Humidity,HourlyPrecipIn,Conditions,Clouds,dailyrainin,SoftwareType,DateUTC
2013-04-10 00:51:00,54.8,42.0,30.02,East,96,0.0,0.0,62,0.00,NA,NA,-99.99,VWS Version 10.39,2013-04-10 07:51:00,
2013-04-10 00:56:00,54.8,41.2,30.02,East,85,0.0,0.0,60,0.00,NA,NA,-99.99,VWS Version 10.39,2013-04-10 07:56:00,
2013-04-10 01:01:00,55.0,40.5,30.02,East,86,0.0,0.0,58,0.00,NA,NA,-99.99,VWS Version 10.39,2013-04-10 08:01:00,
2013-04-10 01:06:00,54.9,40.4,30.02,East,87,0.0,0.0,58,0.00,NA,NA,-99.99,VWS Version 10.39,2013-04-10 08:06:00,
2013-04-10 01:11:00,54.8,39.0,30.03,East,98,0.0,0.0,55,0.00,NA,NA,-99.99,VWS Version 10.39,2013-04-10 08:11:00,
2013-04-10 01:16:00,54.8,40.8,30.02,East,86,0.0,0.0,59,0.00,NA,NA,-99.99,VWS Version 10.39,2013-04-10 08:16:00,
2013-04-10 01:21:00,55.0,41.0,30.02,East,86,0.0,0.0,59,0.00,NA,NA,-99.99,VWS Version 10.39,2013-04-10 08:21:00,
2013-04-10 01:26:00,55.0,41.4,30.02,East,86,0.0,0.0,60,0.00,NA,NA,-99.99,VWS Version 10.39,2013-04-10 08:26:00,
2013-04-10 01:51:00,54.9,40.0,30.02,East,81,0.0,0.0,57,0.00,NA,NA,-99.99,VWS Version 10.39,2013-04-10 08:51:00,
2013-04-10 01:56:00,54.8,40.3,30.02,East,81,0.0,0.0,58,0.00,NA,NA,-99.99,VWS Version 10.39,2013-04-10 08:56:00,
2013-04-10 02:01:00,54.7,39.8,30.02,East,80,0.0,0.0,57,0.00,NA,NA,-99.99,VWS Version 10.39,2013-04-10 09:01:00,
2013-04-10 02:06:00,54.8,39.4,30.02,East,80,0.0,0.0,56,0.00,NA,NA,-99.99,VWS Version 10.39,2013-04-10 09:06:00,
2013-04-10 02:11:00,55.0,40.5,30.02,East,82,0.0,0.0,58,0.00,NA,NA,-99.99,VWS Version 10.39,2013-04-10 09:11:00,
2013-04-10 02:16:00,55.1,39.7,30.01,East,88,0.0,0.0,56,0.00,NA,NA,-99.99,VWS Version 10.39,2013-04-10 09:16:00,
2013-04-10 02:21:00,54.7,40.7,30.01,East,85,0.0,0.0,59,0.00,NA,NA,-99.99,VWS Version 10.39,2013-04-10 09:21:00,
2013-04-10 02:26:00,54.2,39.8,30.01,East,86,0.0,0.0,58,0.00,NA,NA,-99.99,VWS Version 10.39,2013-04-10 09:26:00,
2013-04-10 02:31:00,54.3,38.0,30.01,East,86,0.0,0.0,54,0.00,NA,NA,-99.99,VWS Version 10.39,2013-04-10 09:31:00,
2013-04-10 02:41:00,54.5,35.2,30.01,ESE,105,0.0,0.0,48,0.00,NA,NA,-99.99,VWS Version 10.39,2013-04-10 09:41:00,
2013-04-10 02:46:00,54.0,34.8,30.01,ENE,69,0.0,0.0,48,0.00,NA,NA,-99.99,VWS Version 10.39,2013-04-10 09:46:00,
2013-04-10 02:51:00,54.4,35.1,30.01,East,80,0.0,0.0,48,0.00,NA,NA,-99.99,VWS Version 10.39,2013-04-10 09:51:00,
2013-04-10 02:56:00,54.5,34.7,30.01,East,94,0.0,0.0,47,0.00,NA,NA,-99.99,VWS Version 10.39,2013-04-10 09:56:00,
2013-04-10 03:01:00,54.4,35.1,30.01,East,94,0.0,0.0,48,0.00,NA,NA,-99.99,VWS Version 10.39,2013-04-10 10:01:00,
2013-04-10 03:06:00,54.7,34.9,30.01,East,94,0.0,0.0,47,0.00,NA,NA,-99.99,VWS Version 10.39,2013-04-10 10:06:00,
2013-04-10 03:11:00,54.9,34.0,30.00,East,94,0.0,0.0,45,0.00,NA,NA,-99.99,VWS Version 10.39,2013-04-10 10:11:00,
2013-04-10 03:16:00,54.8,33.9,30.00,East,94,0.0,0.0,45,0.00,NA,NA,-99.99,VWS Version 10.39,2013-04-10 10:16:00,
2013-04-10 03:36:00,54.9,33.4,30.01,East,94,0.0,0.0,44,0.00,NA,NA,-99.99,VWS Version 10.39,2013-04-10 10:36:00,
2013-04-10 03:41:00,54.9,33.4,30.01,East,92,0.0,0.0,44,0.00,NA,NA,-99.99,VWS Version 10.39,2013-04-10 10:41:00,
2013-04-10 03:46:00,55.0,34.1,30.01,East,92,0.0,0.0,45,0.00,NA,NA,-99.99,VWS Version 10.39,2013-04-10 10:46:00,
2013-04-10 03:51:00,55.5,35.6,30.01,East,91,0.0,0.0,47,0.00,NA,NA,-99.99,VWS Version 10.39,2013-04-10 10:51:00,
2013-04-10 03:56:00,56.3,35.2,30.01,NE,55,0.0,0.0,45,0.00,NA,NA,-99.99,VWS Version 10.39,2013-04-10 10:56:00,
2013-04-10 04:21:00,54.7,36.9,30.01,NE,47,0.0,0.0,51,0.00,NA,NA,-99.99,VWS Version 10.39,2013-04-10 11:21:00,
2013-04-10 04:26:00,55.3,38.5,30.01,NE,47,0.0,0.0,53,0.00,NA,NA,-99.99,VWS Version 10.39,2013-04-10 11:26:00,
2013-04-10 04:31:00,55.5,38.7,30.01,NE,46,0.0,0.0,53,0.00,NA,NA,-99.99,VWS Version 10.39,2013-04-10 11:31:00,
2013-04-10 04:36:00,55.5,39.1,30.02,NE,47,0.0,0.0,54,0.00,NA,NA,-99.99,VWS Version 10.39,2013-04-10 11:36:00,
2013-04-10 04:41:00,55.9,38.0,30.02,NE,47,0.0,0.0,51,0.00,NA,NA,-99.99,VWS Version 10.39,2013-04-10 11:41:00,
2013-04-10 04:51:00,56.5,39.6,30.01,NE,46,0.0,0.0,53,0.00,NA,NA,-99.99,VWS Version 10.39,2013-04-10 11:51:00,
2013-04-10 04:56:00,56.5,39.1,30.01,NE,47,0.0,0.0,52,0.00,NA,NA,-99.99,VWS Version 10.39,2013-04-10 11:56:00,
2013-04-10 07:36:00,53.8,44.3,30.07,WNW,293,1.0,1.0,70,0.00,NA,NA,-99.99,VWS Version 10.39,2013-04-10 14:36:00,
2013-04-10 07:41:00,54.6,45.0,30.07,NW,311,3.0,3.0,70,0.00,NA,NA,-99.99,VWS Version 10.39,2013-04-10 14:41:00,
2013-04-10 07:51:00,55.9,46.7,30.08,WNW,289,0.0,0.0,71,0.00,NA,NA,-99.99,VWS Version 10.39,2013-04-10 14:51:00,
2013-04-10 07:56:00,56.5,46.8,30.08,WSW,249,4.0,4.0,70,0.00,NA,NA,-99.99,VWS Version 10.39,2013-04-10 14:56:00,
2013-04-10 09:06:00,59.4,49.2,30.09,SSW,192,5.0,5.0,69,0.00,NA,NA,-99.99,VWS Version 10.39,2013-04-10 16:06:00,
2013-04-10 09:11:00,59.6,49.4,30.09,SSW,211,2.0,3.0,69,0.00,NA,NA,-99.99,VWS Version 10.39,2013-04-10 16:11:00,
2013-04-10 09:16:00,59.8,50.0,30.09,SW,224,3.0,3.0,70,0.00,NA,NA,-99.99,VWS Version 10.39,2013-04-10 16:16:00,
2013-04-10 09:21:00,59.9,50.1,30.09,SSW,207,2.0,4.0,70,0.00,NA,NA,-99.99,VWS Version 10.39,2013-04-10 16:21:00,
2013-04-10 09:26:00,60.3,50.5,30.09,SW,221,2.0,3.0,70,0.00,NA,NA,-99.99,VWS Version 10.39,2013-04-10 16:26:00,
2013-04-10 09:31:00,60.4,50.6,30.09,SW,216,2.0,4.0,70,0.00,NA,NA,-99.99,VWS Version 10.39,2013-04-10 16:31:00,
2013-04-10 09:36:00,60.4,50.2,30.10,SW,214,5.0,6.0,69,0.00,NA,NA,-99.99,VWS Version 10.39,2013-04-10 16:36:00,
2013-04-10 09:46:00,60.6,50.4,30.10,SW,218,4.0,5.0,69,0.00,NA,NA,-99.99,VWS Version 10.39,2013-04-10 16:46:00,
2013-04-10 09:51:00,60.9,50.7,30.10,West,267,1.0,1.0,69,0.00,NA,NA,-99.99,VWS Version 10.39,2013-04-10 16:51:00,
2013-04-10 09:56:00,61.6,51.0,30.10,WSW,243,3.0,5.0,68,0.00,NA,NA,-99.99,VWS Version 10.39,2013-04-10 16:56:00,
2013-04-10 10:36:00,62.9,53.4,30.10,SW,223,0.0,2.0,71,0.00,NA,NA,-99.99,VWS Version 10.39,2013-04-10 17:36:00,
2013-04-10 10:41:00,63.1,53.2,30.10,SSW,207,1.0,1.0,70,0.00,NA,NA,-99.99,VWS Version 10.39,2013-04-10 17:41:00,
2013-04-10 10:46:00,63.6,53.3,30.10,South,191,4.0,5.0,69,0.00,NA,NA,-99.99,VWS Version 10.39,2013-04-10 17:46:00,
2013-04-10 10:51:00,62.6,52.7,30.10,SSW,207,5.0,6.0,70,0.00,NA,NA,-99.99,VWS Version 10.39,2013-04-10 17:51:00,
2013-04-10 10:56:00,62.3,52.8,30.10,SW,214,1.0,3.0,71,0.00,NA,NA,-99.99,VWS Version 10.39,2013-04-10 17:56:00,
2013-04-10 11:01:00,62.2,52.7,30.10,SSW,209,1.0,2.0,71,0.00,NA,NA,-99.99,VWS Version 10.39,2013-04-10 18:01:00,
2013-04-10 11:06:00,62.3,52.8,30.10,WSW,242,0.0,0.0,71,0.00,NA,NA,-99.99,VWS Version 10.39,2013-04-10 18:06:00,
2013-04-10 11:11:00,62.5,53.0,30.10,WNW,290,0.0,3.0,71,0.00,NA,NA,-99.99,VWS Version 10.39,2013-04-10 18:11:00,
2013-04-10 11:16:00,62.5,53.0,30.09,WSW,242,2.0,4.0,71,0.00,NA,NA,-99.99,VWS Version 10.39,2013-04-10 18:16:00,
2013-04-10 11:21:00,62.8,53.3,30.09,West,277,3.0,7.0,71,0.00,NA,NA,-99.99,VWS Version 10.39,2013-04-10 18:21:00,
2013-04-10 11:26:00,62.8,53.3,30.09,West,279,5.0,5.0,71,0.00,NA,NA,-99.99,VWS Version 10.39,2013-04-10 18:26:00,
2013-04-10 11:31:00,63.2,53.3,30.09,SSW,208,2.0,5.0,70,0.00,NA,NA,-99.99,VWS Version 10.39,2013-04-10 18:31:00,
2013-04-10 11:36:00,63.4,53.1,30.09,West,265,4.0,4.0,69,0.00,NA,NA,-99.99,VWS Version 10.39,2013-04-10 18:36:00,
2013-04-10 11:41:00,63.2,52.9,30.09,WSW,239,3.0,4.0,69,0.00,NA,NA,-99.99,VWS Version 10.39,2013-04-10 18:41:00,
2013-04-10 11:46:00,63.0,53.1,30.08,WSW,237,3.0,4.0,70,0.00,NA,NA,-99.99,VWS Version 10.39,2013-04-10 18:46:00,
2013-04-10 11:51:00,63.3,53.0,30.09,WSW,258,1.0,3.0,69,0.00,NA,NA,-99.99,VWS Version 10.39,2013-04-10 18:51:00,
2013-04-10 11:56:00,63.7,53.0,30.08,SW,224,3.0,4.0,68,0.00,NA,NA,-99.99,VWS Version 10.39,2013-04-10 18:56:00,
2013-04-10 12:01:00,63.4,53.1,30.08,West,275,5.0,5.0,69,0.00,NA,NA,-99.99,VWS Version 10.39,2013-04-10 19:01:00,
2013-04-10 12:06:00,63.0,53.1,30.08,SW,235,2.0,3.0,70,0.00,NA,NA,-99.99,VWS Version 10.39,2013-04-10 19:06:00,
2013-04-10 12:11:00,63.1,53.2,30.08,WSW,240,3.0,3.0,70,0.00,NA,NA,-99.99,VWS Version 10.39,2013-04-10 19:11:00,
2013-04-10 12:21:00,63.5,53.5,30.08,SW,221,4.0,4.0,70,0.00,NA,NA,-99.99,VWS Version 10.39,2013-04-10 19:21:00,
2013-04-10 12:26:00,64.0,54.0,30.08,South,173,2.0,4.0,70,0.00,NA,NA,-99.99,VWS Version 10.39,2013-04-10 19:26:00,
2013-04-10 12:31:00,63.9,53.1,30.08,SW,223,5.0,5.0,68,0.00,NA,NA,-99.99,VWS Version 10.39,2013-04-10 19:31:00,
2013-04-10 12:36:00,63.9,53.1,30.08,SW,217,1.0,3.0,68,0.00,NA,NA,-99.99,VWS Version 10.39,2013-04-10 19:36:00,
2013-04-10 12:41:00,64.2,53.8,30.08,SE,132,0.0,2.0,69,0.00,NA,NA,-99.99,VWS Version 10.39,2013-04-10 19:41:00,
2013-04-10 12:46:00,64.7,53.9,30.07,SSW,200,4.0,4.0,68,0.00,NA,NA,-99.99,VWS Version 10.39,2013-04-10 19:46:00,
2013-04-10 12:51:00,64.6,54.6,30.07,SSW,212,3.0,6.0,70,0.00,NA,NA,-99.99,VWS Version 10.39,2013-04-10 19:51:00,
2013-04-10 13:06:00,64.0,54.0,30.07,South,170,4.0,4.0,70,0.00,NA,NA,-99.99,VWS Version 10.39,2013-04-10 20:06:00,
2013-04-10 13:11:00,64.2,54.2,30.07,SSW,213,3.0,5.0,70,0.00,NA,NA,-99.99,VWS Version 10.39,2013-04-10 20:11:00,
2013-04-10 13:21:00,64.0,54.4,30.06,SW,219,3.0,4.0,71,0.00,NA,NA,-99.99,VWS Version 10.39,2013-04-10 20:21:00,
2013-04-10 13:26:00,64.4,54.4,30.06,West,259,1.0,4.0,70,0.00,NA,NA,-99.99,VWS Version 10.39,2013-04-10 20:26:00,
2013-04-10 13:31:00,64.9,54.5,30.06,WSW,247,2.0,4.0,69,0.00,NA,NA,-99.99,VWS Version 10.39,2013-04-10 20:31:00,
2013-04-10 13:36:00,64.7,54.7,30.06,North,351,1.0,1.0,70,0.00,NA,NA,-99.99,VWS Version 10.39,2013-04-10 20:36:00,
2013-04-10 13:41:00,64.9,54.5,30.06,WSW,246,3.0,3.0,69,0.00,NA,NA,-99.99,VWS Version 10.39,2013-04-10 20:41:00,
2013-04-10 13:51:00,64.7,54.7,30.06,East,86,2.0,2.0,70,0.00,NA,NA,-99.99,VWS Version 10.39,2013-04-10 20:51:00,
2013-04-10 13:56:00,65.2,54.8,30.06,SW,219,5.0,6.0,69,0.00,NA,NA,-99.99,VWS Version 10.39,2013-04-10 20:56:00,
2013-04-10 14:06:00,64.7,53.9,30.06,SW,229,1.0,5.0,68,0.00,NA,NA,-99.99,VWS Version 10.39,2013-04-10 21:06:00,
2013-04-10 14:11:00,64.8,54.8,30.06,SSW,209,2.0,2.0,70,0.00,NA,NA,-99.99,VWS Version 10.39,2013-04-10 21:11:00,
2013-04-10 14:16:00,65.0,54.6,30.05,SSW,201,4.0,4.0,69,0.00,NA,NA,-99.99,VWS Version 10.39,2013-04-10 21:16:00,
2013-04-10 14:21:00,65.3,54.9,30.05,SSW,205,3.0,4.0,69,0.00,NA,NA,-99.99,VWS Version 10.39,2013-04-10 21:21:00,
2013-04-10 14:26:00,65.2,54.8,30.05,SSW,213,3.0,4.0,69,0.00,NA,NA,-99.99,VWS Version 10.39,2013-04-10 21:26:00,
2013-04-10 14:31:00,65.2,54.8,30.05,SSW,196,4.0,4.0,69,0.00,NA,NA,-99.99,VWS Version 10.39,2013-04-10 21:31:00,
2013-04-10 14:36:00,65.0,54.6,30.05,South,181,4.0,4.0,69,0.00,NA,NA,-99.99,VWS Version 10.39,2013-04-10 21:36:00,
2013-04-10 14:41:00,65.0,55.0,30.05,SSW,202,2.0,4.0,70,0.00,NA,NA,-99.99,VWS Version 10.39,2013-04-10 21:41:00,
2013-04-10 14:46:00,65.0,55.0,30.05,SW,224,1.0,4.0,70,0.00,NA,NA,-99.99,VWS Version 10.39,2013-04-10 21:46:00,
2013-04-10 14:51:00,65.5,55.5,30.04,South,184,0.0,3.0,70,0.00,NA,NA,-99.99,VWS Version 10.39,2013-04-10 21:51:00,
2013-04-10 14:56:00,65.8,55.4,30.04,SW,215,3.0,4.0,69,0.00,NA,NA,-99.99,VWS Version 10.39,2013-04-10 21:56:00,
2013-04-10 15:01:00,66.3,55.0,30.04,WSW,256,2.0,2.0,67,0.00,NA,NA,-99.99,VWS Version 10.39,2013-04-10 22:01:00,
2013-04-10 15:06:00,66.9,55.6,30.04,SSW,211,4.0,5.0,67,0.00,NA,NA,-99.99,VWS Version 10.39,2013-04-10 22:06:00,
2013-04-10 15:11:00,66.7,55.4,30.04,SSW,208,2.0,4.0,67,0.00,NA,NA,-99.99,VWS Version 10.39,2013-04-10 22:11:00,
2013-04-10 15:16:00,66.0,55.5,30.04,South,173,4.0,5.0,69,0.00,NA,NA,-99.99,VWS Version 10.39,2013-04-10 22:16:00,
2013-04-10 15:21:00,65.7,55.3,30.04,WSW,240,2.0,3.0,69,0.00,NA,NA,-99.99,VWS Version 10.39,2013-04-10 22:21:00,
2013-04-10 15:26:00,65.6,56.0,30.03,SSW,205,2.0,2.0,71,0.00,NA,NA,-99.99,VWS Version 10.39,2013-04-10 22:26:00,
2013-04-10 15:31:00,65.2,55.6,30.03,SSW,199,7.0,7.0,71,0.00,NA,NA,-99.99,VWS Version 10.39,2013-04-10 22:31:00,
2013-04-10 15:36:00,65.1,55.9,30.03,SE,136,4.0,6.0,72,0.00,NA,NA,-99.99,VWS Version 10.39,2013-04-10 22:36:00,
2013-04-10 15:46:00,65.6,55.2,30.03,West,279,1.0,3.0,69,0.00,NA,NA,-99.99,VWS Version 10.39,2013-04-10 22:46:00,
2013-04-10 15:51:00,65.5,55.1,30.03,SW,214,2.0,5.0,69,0.00,NA,NA,-99.99,VWS Version 10.39,2013-04-10 22:51:00,
2013-04-10 15:56:00,65.6,55.6,30.03,West,269,3.0,3.0,70,0.00,NA,NA,-99.99,VWS Version 10.39,2013-04-10 22:56:00,
2013-04-10 16:01:00,66.2,54.5,30.02,WSW,252,1.0,2.0,66,0.00,NA,NA,-99.99,VWS Version 10.39,2013-04-10 23:01:00,
2013-04-10 16:06:00,66.5,54.8,30.02,SSW,198,3.0,5.0,66,0.00,NA,NA,-99.99,VWS Version 10.39,2013-04-10 23:06:00,
2013-04-10 16:11:00,66.7,55.0,30.02,ESE,110,0.0,0.0,66,0.00,NA,NA,-99.99,VWS Version 10.39,2013-04-10 23:11:00,
2013-04-10 16:16:00,67.3,53.8,30.02,South,190,0.0,1.0,62,0.00,NA,NA,-99.99,VWS Version 10.39,2013-04-10 23:16:00,
2013-04-10 16:21:00,68.0,52.2,30.02,WSW,245,2.0,2.0,57,0.00,NA,NA,-99.99,VWS Version 10.39,2013-04-10 23:21:00,
2013-04-10 16:26:00,68.5,51.7,30.02,WNW,296,1.0,2.0,55,0.00,NA,NA,-99.99,VWS Version 10.39,2013-04-10 23:26:00,
2013-04-10 16:31:00,69.5,49.0,30.01,West,281,2.0,3.0,48,0.00,NA,NA,-99.99,VWS Version 10.39,2013-04-10 23:31:00,
2013-04-10 16:36:00,69.8,48.1,30.01,WNW,286,3.0,4.0,46,0.00,NA,NA,-99.99,VWS Version 10.39,2013-04-10 23:36:00,
2013-04-10 16:41:00,70.7,47.7,30.01,WNW,293,5.0,5.0,44,0.00,NA,NA,-99.99,VWS Version 10.39,2013-04-10 23:41:00,
2013-04-10 17:01:00,69.4,47.7,30.01,West,267,5.0,5.0,46,0.00,NA,NA,-99.99,VWS Version 10.39,2013-04-11 00:01:00,
2013-04-10 17:06:00,69.1,48.0,30.01,West,268,3.0,5.0,47,0.00,NA,NA,-99.99,VWS Version 10.39,2013-04-11 00:06:00,
2013-04-10 17:11:00,69.4,47.7,30.01,WSW,254,1.0,5.0,46,0.00,NA,NA,-99.99,VWS Version 10.39,2013-04-11 00:11:00,
2013-04-10 17:16:00,69.7,48.0,30.00,NW,312,4.0,6.0,46,0.00,NA,NA,-99.99,VWS Version 10.39,2013-04-11 00:16:00,
2013-04-10 17:21:00,70.2,47.9,30.00,NE,48,1.0,4.0,45,0.00,NA,NA,-99.99,VWS Version 10.39,2013-04-11 00:21:00,
2013-04-10 17:41:00,69.6,49.1,30.01,South,180,3.0,4.0,48,0.00,NA,NA,-99.99,VWS Version 10.39,2013-04-11 00:41:00,
2013-04-10 17:46:00,69.2,46.4,30.01,West,277,5.0,6.0,44,0.00,NA,NA,-99.99,VWS Version 10.39,2013-04-11 00:46:00,
2013-04-10 17:56:00,68.5,46.3,30.01,WNW,301,3.0,5.0,45,0.00,NA,NA,-99.99,VWS Version 10.39,2013-04-11 00:56:00,
2013-04-10 18:21:00,68.9,43.0,30.00,WNW,292,3.0,6.0,39,0.00,NA,NA,-99.99,VWS Version 10.39,2013-04-11 01:21:00,
2013-04-10 18:26:00,68.4,44.4,30.01,NW,310,7.0,8.0,42,0.00,NA,NA,-99.99,VWS Version 10.39,2013-04-11 01:26:00,
2013-04-10 18:36:00,67.2,44.0,30.00,WNW,296,6.0,7.0,43,0.00,NA,NA,-99.99,VWS Version 10.39,2013-04-11 01:36:00,
2013-04-10 18:41:00,66.8,45.9,30.00,NW,309,6.0,6.0,47,0.00,NA,NA,-99.99,VWS Version 10.39,2013-04-11 01:41:00,
2013-04-10 18:51:00,66.1,46.9,30.01,West,269,1.0,2.0,50,0.00,NA,NA,-99.99,VWS Version 10.39,2013-04-11 01:51:00,
2013-04-10 18:56:00,65.7,47.6,30.01,NNW,327,3.0,4.0,52,0.00,NA,NA,-99.99,VWS Version 10.39,2013-04-11 01:56:00,
2013-04-10 19:01:00,65.3,46.7,30.01,NW,317,3.0,4.0,51,0.00,NA,NA,-99.99,VWS Version 10.39,2013-04-11 02:01:00,
2013-04-10 19:06:00,64.9,45.3,30.01,WNW,294,4.0,4.0,49,0.00,NA,NA,-99.99,VWS Version 10.39,2013-04-11 02:06:00,
2013-04-10 19:11:00,64.6,45.0,30.01,North,349,1.0,3.0,49,0.00,NA,NA,-99.99,VWS Version 10.39,2013-04-11 02:11:00,
2013-04-10 19:16:00,64.3,44.8,30.01,NW,321,1.0,2.0,49,0.00,NA,NA,-99.99,VWS Version 10.39,2013-04-11 02:16:00,
2013-04-10 19:21:00,64.1,44.6,30.01,WNW,302,3.0,4.0,49,0.00,NA,NA,-99.99,VWS Version 10.39,2013-04-11 02:21:00,
2013-04-10 19:26:00,64.0,44.5,30.01,NW,306,5.0,5.0,49,0.00,NA,NA,-99.99,VWS Version 10.39,2013-04-11 02:26:00,
2013-04-10 19:31:00,64.0,44.5,30.01,WNW,294,3.0,3.0,49,0.00,NA,NA,-99.99,VWS Version 10.39,2013-04-11 02:31:00,
2013-04-10 19:36:00,63.9,44.4,30.01,NW,309,3.0,4.0,49,0.00,NA,NA,-99.99,VWS Version 10.39,2013-04-11 02:36:00,
2013-04-10 19:41:00,63.8,44.8,30.01,NW,319,2.0,2.0,50,0.00,NA,NA,-99.99,VWS Version 10.39,2013-04-11 02:41:00,
2013-04-10 19:51:00,63.4,45.5,30.01,NW,314,2.0,2.0,52,0.00,NA,NA,-99.99,VWS Version 10.39,2013-04-11 02:51:00,
2013-04-10 19:56:00,63.3,44.9,30.01,NW,304,2.0,3.0,51,0.00,NA,NA,-99.99,VWS Version 10.39,2013-04-11 02:56:00,
2013-04-10 20:01:00,63.3,45.4,30.02,West,279,4.0,5.0,52,0.00,NA,NA,-99.99,VWS Version 10.39,2013-04-11 03:01:00,
2013-04-10 20:06:00,63.0,45.6,30.02,WNW,292,6.0,6.0,53,0.00,NA,NA,-99.99,VWS Version 10.39,2013-04-11 03:06:00,
2013-04-10 20:46:00,60.7,50.1,30.03,WSW,245,1.0,1.0,68,0.00,NA,NA,-99.99,VWS Version 10.39,2013-04-11 03:46:00,
2013-04-10 20:51:00,60.4,50.2,30.03,WSW,245,1.0,1.0,69,0.00,NA,NA,-99.99,VWS Version 10.39,2013-04-11 03:51:00,
2013-04-10 20:56:00,60.2,49.6,30.03,WSW,245,0.0,1.0,68,0.00,NA,NA,-99.99,VWS Version 10.39,2013-04-11 03:56:00,
2013-04-10 21:11:00,59.6,47.8,30.04,SE,134,5.0,5.0,65,0.00,NA,NA,-99.99,VWS Version 10.39,2013-04-11 04:11:00,
2013-04-10 21:16:00,59.6,47.8,30.04,ESE,107,3.0,3.0,65,0.00,NA,NA,-99.99,VWS Version 10.39,2013-04-11 04:16:00,
2013-04-10 21:21:00,59.6,47.4,30.04,ESE,113,1.0,1.0,64,0.00,NA,NA,-99.99,VWS Version 10.39,2013-04-11 04:21:00,
2013-04-10 21:46:00,58.8,47.5,30.04,East,95,0.0,1.0,66,0.00,NA,NA,-99.99,VWS Version 10.39,2013-04-11 04:46:00,
2013-04-10 21:51:00,58.6,48.1,30.04,East,95,0.0,0.0,68,0.00,NA,NA,-99.99,VWS Version 10.39,2013-04-11 04:51:00,
2013-04-10 21:56:00,58.6,48.5,30.04,East,95,0.0,0.0,69,0.00,NA,NA,-99.99,VWS Version 10.39,2013-04-11 04:56:00,
2013-04-10 22:36:00,58.4,46.7,30.03,ESE,107,0.0,1.0,65,0.00,NA,NA,-99.99,VWS Version 10.39,2013-04-11 05:36:00,
2013-04-10 23:01:00,58.0,47.1,30.03,East,92,3.0,3.0,67,0.00,NA,NA,-99.99,VWS Version 10.39,2013-04-11 06:01:00,
2013-04-10 23:21:00,57.3,44.8,30.02,NE,46,2.0,3.0,63,0.00,NA,NA,-99.99,VWS Version 10.39,2013-04-11 06:21:00,
2013-04-10 23:31:00,57.8,42.2,30.02,NE,50,2.0,2.0,56,0.00,NA,NA,-99.99,VWS Version 10.39,2013-04-11 06:31:00,
2013-04-10 23:36:00,57.8,41.8,30.01,ENE,61,4.0,4.0,55,0.00,NA,NA,-99.99,VWS Version 10.39,2013-04-11 06:36:00,
2013-04-10 23:41:00,57.7,41.2,30.01,ENE,58,2.0,2.0,54,0.00,NA,NA,-99.99,VWS Version 10.39,2013-04-11 06:41:00,